createdAt,value
2018-09-18T00:00:02.559Z,94.77
2018-09-18T00:02:31.939Z,94.46
2018-09-18T00:05:03.553Z,93.92
2018-09-18T00:07:39.439Z,94.31
2018-09-18T00:10:09.779Z,93.79
2018-09-18T00:12:41.800Z,94.32
2018-09-18T00:15:13.579Z,94.73
2018-09-18T00:17:45.379Z,93.92
2018-09-18T00:47:53.499Z,94.80
2018-09-18T00:50:23.979Z,94.34
2018-09-18T00:52:54.619Z,95.02
2018-09-18T00:55:24.439Z,94.47
2018-09-18T00:57:54.958Z,94.87
2018-09-18T01:00:25.921Z,94.03
2018-09-18T01:02:55.918Z,93.88
2018-09-18T01:05:25.798Z,94.75
2018-09-18T01:08:00.042Z,94.97
2018-09-18T01:22:36.378Z,94.39
2018-09-18T01:25:06.798Z,94.73
2018-09-18T01:27:36.638Z,95.20
2018-09-18T01:30:07.258Z,93.93
2018-09-18T01:32:37.040Z,93.83
2018-09-18T01:35:06.827Z,93.57
2018-09-18T01:37:36.299Z,94.73
2018-09-18T01:40:06.699Z,94.54
2018-09-18T01:42:36.218Z,94.54
2018-09-18T01:45:05.978Z,94.07
2018-09-18T01:47:35.978Z,94.25
2018-09-18T01:50:07.278Z,93.81
2018-09-18T01:52:39.458Z,92.96
2018-09-18T01:55:10.058Z,93.10
2018-09-18T02:00:43.186Z,92.74
2018-09-18T02:03:14.178Z,93.17
2018-09-18T02:05:43.718Z,93.10
2018-09-18T02:08:14.427Z,93.84
2018-09-18T02:10:43.878Z,94.43
2018-09-18T02:13:13.479Z,94.41
2018-09-18T02:15:43.261Z,94.27
2018-09-18T02:18:13.166Z,94.21
2018-09-18T02:20:43.718Z,93.86
2018-09-18T02:23:13.159Z,95.02
2018-09-18T02:25:42.918Z,95.45
2018-09-18T02:28:12.359Z,93.95
2018-09-18T02:30:41.806Z,93.72
2018-09-18T02:33:11.399Z,93.64
2018-09-18T02:35:41.004Z,93.13
2018-09-18T02:38:10.447Z,93.81
2018-09-18T02:40:40.200Z,94.10
2018-09-18T02:43:09.638Z,93.73
2018-09-18T02:45:39.318Z,93.51
2018-09-18T02:48:08.837Z,94.29
2018-09-18T02:50:38.439Z,93.88
2018-09-18T02:53:07.878Z,94.52
2018-09-18T02:55:37.478Z,92.97
2018-09-18T02:58:06.946Z,92.93
2018-09-18T03:00:36.658Z,92.95
2018-09-18T03:03:06.080Z,93.24
2018-09-18T03:05:35.639Z,93.34
2018-09-18T03:08:05.403Z,94.84
2018-09-18T03:10:35.138Z,94.07
2018-09-18T03:13:04.559Z,93.87
2018-09-18T03:15:34.018Z,93.51
2018-09-18T03:18:03.599Z,94.45
2018-09-18T03:20:33.218Z,94.09
2018-09-18T03:23:02.766Z,93.07
2018-09-18T03:25:32.638Z,92.80
2018-09-18T03:28:04.103Z,93.31
2018-09-18T03:30:34.138Z,94.32
2018-09-18T03:33:04.176Z,93.80
2018-09-18T03:35:33.817Z,94.53
2018-09-18T03:38:03.240Z,94.24
2018-09-18T03:40:32.863Z,94.88
2018-09-18T03:43:02.444Z,94.19
2018-09-18T03:45:32.259Z,93.63
2018-09-18T03:48:01.790Z,94.54
2018-09-18T03:50:31.545Z,93.59
2018-09-18T03:53:00.977Z,93.53
2018-09-18T03:55:30.746Z,93.56
2018-09-18T03:58:00.355Z,93.39
2018-09-18T04:00:30.032Z,93.59
2018-09-18T04:02:59.422Z,94.98
2018-09-18T04:05:28.824Z,94.63
2018-09-18T04:07:58.395Z,94.48
2018-09-18T04:10:28.037Z,94.47
2018-09-18T04:12:57.637Z,94.86
2018-09-18T04:15:27.379Z,94.82
2018-09-18T04:17:57.716Z,95.09
2018-09-18T04:20:27.388Z,94.48
2018-09-18T04:22:56.921Z,94.57
2018-09-18T04:25:26.665Z,93.45
2018-09-18T04:27:56.356Z,94.94
2018-09-18T04:30:25.840Z,94.14
2018-09-18T04:32:55.224Z,94.39
2018-09-18T04:35:24.753Z,94.33
2018-09-18T04:37:54.108Z,95.64
2018-09-18T04:40:23.860Z,94.95
2018-09-18T04:42:53.358Z,94.61
2018-09-18T04:45:23.067Z,94.92
2018-09-18T04:47:52.511Z,95.28
2018-09-18T04:50:22.273Z,94.97
2018-09-18T04:52:51.915Z,94.83
2018-09-18T04:55:21.687Z,95.18
2018-09-18T04:57:52.441Z,95.42
2018-09-18T05:00:21.974Z,95.41
2018-09-18T05:02:51.375Z,95.21
2018-09-18T05:05:21.179Z,94.96
2018-09-18T05:07:50.485Z,94.57
2018-09-18T05:10:20.083Z,94.96
2018-09-18T05:12:50.102Z,94.27
2018-09-18T05:15:20.608Z,94.83
2018-09-18T05:17:50.296Z,95.31
2018-09-18T05:20:20.027Z,94.78
2018-09-18T05:22:49.682Z,95.12
2018-09-18T05:25:19.565Z,95.26
2018-09-18T05:27:49.170Z,95.03
2018-09-18T05:30:19.074Z,95.28
2018-09-18T05:32:48.689Z,95.15
2018-09-18T05:35:18.504Z,95.25
2018-09-18T05:37:47.936Z,95.20
2018-09-18T05:40:17.692Z,95.36
2018-09-18T05:42:47.313Z,95.45
2018-09-18T05:45:17.163Z,95.64
2018-09-18T05:47:46.753Z,95.59
2018-09-18T05:50:16.257Z,96.32
2018-09-18T05:52:45.943Z,96.03
2018-09-18T05:55:15.703Z,95.49
2018-09-18T05:57:45.328Z,95.80
2018-09-18T06:00:14.902Z,95.72
2018-09-18T06:02:44.403Z,95.92
2018-09-18T06:05:14.116Z,96.21
2018-09-18T06:07:43.876Z,95.07
2018-09-18T06:10:13.646Z,94.94
2018-09-18T06:12:43.061Z,95.07
2018-09-18T06:15:13.160Z,94.20
2018-09-18T06:17:42.834Z,93.23
2018-09-18T06:20:12.516Z,93.11
2018-09-18T06:22:42.095Z,93.49
2018-09-18T06:25:11.896Z,92.02
2018-09-18T06:27:41.618Z,92.50
2018-09-18T06:30:11.481Z,91.59
2018-09-18T06:32:40.903Z,91.94
2018-09-18T06:35:10.613Z,91.95
2018-09-18T06:37:40.254Z,91.05
2018-09-18T06:40:09.941Z,90.52
2018-09-18T06:42:40.588Z,88.91
2018-09-18T06:45:10.608Z,89.44
2018-09-18T06:47:40.424Z,88.77
2018-09-18T06:50:10.083Z,87.58
2018-09-18T06:52:39.888Z,87.28
2018-09-18T06:55:09.637Z,86.95
2018-09-18T06:57:39.399Z,85.94
2018-09-18T07:00:09.425Z,86.21
2018-09-18T07:02:39.240Z,85.62
2018-09-18T07:05:09.147Z,85.46
2018-09-18T07:07:38.770Z,85.83
2018-09-18T07:10:08.998Z,84.92
2018-09-18T07:12:38.540Z,84.66
2018-09-18T07:15:08.259Z,83.83
2018-09-18T07:17:37.794Z,83.46
2018-09-18T07:20:07.635Z,85.25
2018-09-18T07:22:37.216Z,83.67
2018-09-18T07:25:06.845Z,82.31
2018-09-18T07:27:36.892Z,82.67
2018-09-18T07:30:08.052Z,81.26
2018-09-18T07:32:37.620Z,84.29
2018-09-18T07:35:08.019Z,82.28
2018-09-18T07:37:37.633Z,80.95
2018-09-18T07:40:07.516Z,80.28
2018-09-18T07:42:37.097Z,79.90
2018-09-18T07:45:06.863Z,77.81
2018-09-18T07:47:36.500Z,79.03
2018-09-18T07:50:06.208Z,78.04
2018-09-18T07:52:35.711Z,75.11
2018-09-18T07:55:05.516Z,73.32
2018-09-18T07:57:35.067Z,73.15
2018-09-18T08:00:05.642Z,70.68
2018-09-18T08:02:35.375Z,70.31
2018-09-18T08:05:06.662Z,70.82
2018-09-18T08:07:36.181Z,72.27
2018-09-18T08:10:05.967Z,68.16
2018-09-18T08:12:35.686Z,68.25
2018-09-18T08:15:05.312Z,66.37
2018-09-18T08:17:34.921Z,65.40
2018-09-18T08:20:04.664Z,64.63
2018-09-18T08:22:34.439Z,64.88
2018-09-18T08:25:04.057Z,66.42
2018-09-18T08:27:33.634Z,64.36
2018-09-18T08:30:03.322Z,65.52
2018-09-18T08:32:33.003Z,65.10
2018-09-18T08:35:02.788Z,63.44
2018-09-18T08:37:32.676Z,62.13
2018-09-18T08:40:02.469Z,63.81
2018-09-18T08:42:32.618Z,64.25
2018-09-18T08:45:02.331Z,61.84
2018-09-18T08:47:32.033Z,61.75
2018-09-18T08:50:01.617Z,63.51
2018-09-18T08:52:31.354Z,60.54
2018-09-18T08:55:00.918Z,59.59
2018-09-18T08:57:30.708Z,58.80
2018-09-18T09:00:00.507Z,59.14
2018-09-18T09:02:30.351Z,59.92
2018-09-18T09:04:59.983Z,56.32
2018-09-18T09:07:30.469Z,58.85
2018-09-18T09:10:00.239Z,58.04
2018-09-18T09:12:30.043Z,56.76
2018-09-18T09:14:59.777Z,59.65
2018-09-18T09:17:30.432Z,60.78
2018-09-18T09:20:00.196Z,58.99
2018-09-18T09:22:30.043Z,59.70
2018-09-18T09:24:59.714Z,62.79
2018-09-18T09:27:29.398Z,62.93
2018-09-18T09:29:58.822Z,60.21
2018-09-18T09:32:28.717Z,62.58
2018-09-18T09:34:58.472Z,61.07
2018-09-18T09:37:28.225Z,58.40
2018-09-18T09:39:57.657Z,59.14
2018-09-18T09:42:27.470Z,55.80
2018-09-18T09:44:57.154Z,56.87
2018-09-18T09:47:26.668Z,58.18
2018-09-18T09:49:56.361Z,58.25
2018-09-18T09:52:26.095Z,58.20
2018-09-18T09:54:55.550Z,59.55
2018-09-18T09:57:25.645Z,59.39
2018-09-18T09:59:55.085Z,59.18
2018-09-18T10:02:31.001Z,59.20
2018-09-18T10:05:00.586Z,59.05
2018-09-18T10:07:30.346Z,58.18
2018-09-18T10:09:59.845Z,56.30
2018-09-18T10:12:29.314Z,54.96
2018-09-18T10:14:59.088Z,58.35
2018-09-18T10:17:28.902Z,57.61
2018-09-18T10:19:58.415Z,57.11
2018-09-18T10:22:27.828Z,56.66
2018-09-18T10:24:57.465Z,59.76
2018-09-18T10:27:27.821Z,57.80
2018-09-18T10:29:57.316Z,54.50
2018-09-18T10:32:26.934Z,53.18
2018-09-18T10:34:56.526Z,56.69
2018-09-18T10:37:26.264Z,55.10
2018-09-18T10:39:56.148Z,56.56
2018-09-18T10:42:25.852Z,55.41
2018-09-18T10:44:55.550Z,54.75
2018-09-18T10:47:25.326Z,55.89
2018-09-18T10:49:54.759Z,54.45
2018-09-18T10:52:24.402Z,53.00
2018-09-18T10:54:54.014Z,51.75
2018-09-18T10:57:23.694Z,54.47
2018-09-18T10:59:53.488Z,53.11
2018-09-18T11:02:23.134Z,55.32
2018-09-18T11:04:52.683Z,57.34
2018-09-18T11:07:22.457Z,52.49
2018-09-18T11:09:52.293Z,53.04
2018-09-18T11:12:22.001Z,54.51
2018-09-18T11:14:51.496Z,52.48
2018-09-18T11:17:21.280Z,56.03
2018-09-18T11:19:50.752Z,50.49
2018-09-18T11:22:20.983Z,52.08
2018-09-18T11:24:50.678Z,48.76
2018-09-18T11:27:20.246Z,51.54
2018-09-18T11:29:49.985Z,51.76
2018-09-18T11:32:19.742Z,50.66
2018-09-18T11:34:49.551Z,51.41
2018-09-18T11:37:19.232Z,50.20
2018-09-18T11:39:48.748Z,48.97
2018-09-18T11:42:19.064Z,55.88
2018-09-18T11:44:48.844Z,48.55
2018-09-18T11:47:18.603Z,48.21
2018-09-18T11:49:48.026Z,50.90
2018-09-18T11:52:17.838Z,47.51
2018-09-18T11:54:48.361Z,50.49
2018-09-18T11:57:17.979Z,50.63
2018-09-18T11:59:47.534Z,50.42
2018-09-18T12:02:17.632Z,52.02
2018-09-18T12:04:47.249Z,50.76
2018-09-18T12:07:16.983Z,48.65
2018-09-18T12:09:46.598Z,48.02
2018-09-18T12:12:16.281Z,49.80
2018-09-18T12:14:45.787Z,47.92
2018-09-18T12:17:15.386Z,49.79
2018-09-18T12:19:45.147Z,48.05
2018-09-18T12:22:14.931Z,49.03
2018-09-18T12:24:44.623Z,50.63
2018-09-18T12:27:14.499Z,47.14
2018-09-18T12:29:44.186Z,47.04
2018-09-18T12:32:13.701Z,47.95
2018-09-18T12:34:43.398Z,47.00
2018-09-18T12:37:13.490Z,47.97
2018-09-18T12:39:42.919Z,45.17
2018-09-18T12:42:12.733Z,46.87
2018-09-18T12:44:42.477Z,47.39
2018-09-18T12:47:12.203Z,46.65
2018-09-18T12:49:41.962Z,49.40
2018-09-18T12:52:11.555Z,50.20
2018-09-18T12:54:41.121Z,46.60
2018-09-18T12:57:10.806Z,49.85
2018-09-18T12:59:40.449Z,49.05
2018-09-18T13:02:10.502Z,49.06
2018-09-18T13:04:40.368Z,51.08
2018-09-18T13:07:09.952Z,47.72
2018-09-18T13:09:39.734Z,46.37
2018-09-18T13:12:09.374Z,49.43
2018-09-18T13:14:39.217Z,48.23
2018-09-18T13:17:09.009Z,50.96
2018-09-18T13:19:38.630Z,50.03
2018-09-18T13:22:08.861Z,51.24
2018-09-18T13:24:38.596Z,48.29
2018-09-18T13:27:08.202Z,45.74
2018-09-18T13:29:37.787Z,46.05
2018-09-18T13:32:07.601Z,45.72
2018-09-18T13:34:37.476Z,49.44
2018-09-18T13:37:08.204Z,47.65
2018-09-18T13:39:37.785Z,45.76
2018-09-18T13:42:07.401Z,47.35
2018-09-18T13:44:37.037Z,46.33
2018-09-18T13:47:06.704Z,45.01
2018-09-18T13:49:36.257Z,45.53
2018-09-18T13:52:05.959Z,44.00
2018-09-18T13:54:35.821Z,44.17
2018-09-18T13:57:05.574Z,44.60
2018-09-18T13:59:35.235Z,45.52
2018-09-18T14:02:05.000Z,44.58
2018-09-18T14:04:34.731Z,43.36
2018-09-18T14:07:06.141Z,41.48
2018-09-18T14:09:35.777Z,44.12
2018-09-18T14:12:06.904Z,42.18
2018-09-18T14:14:36.747Z,43.29
2018-09-18T14:17:07.239Z,43.29
2018-09-18T14:19:36.842Z,42.23
2018-09-18T14:22:25.146Z,39.52
2018-09-18T14:25:00.665Z,39.57
2018-09-18T14:27:30.764Z,44.61
2018-09-18T14:45:25.817Z,39.54
2018-09-18T14:47:55.702Z,44.53
2018-09-18T14:50:25.403Z,41.31
2018-09-18T14:52:54.902Z,42.96
2018-09-18T14:55:24.361Z,44.11
2018-09-18T14:57:54.041Z,49.22
2018-09-18T15:00:23.544Z,44.18
2018-09-18T15:02:53.741Z,44.75
2018-09-18T15:05:24.022Z,45.41
2018-09-18T15:07:53.641Z,43.21
2018-09-18T15:10:23.081Z,42.25
2018-09-18T15:12:54.382Z,41.23
2018-09-18T15:15:23.957Z,42.13
2018-09-18T15:17:53.624Z,43.53
2018-09-18T15:20:23.824Z,43.82
2018-09-18T15:22:53.942Z,43.51
2018-09-18T15:25:23.931Z,44.61
2018-09-18T15:27:58.865Z,45.66
2018-09-18T15:30:29.481Z,46.95
2018-09-18T15:32:59.241Z,47.61
2018-09-18T15:48:19.804Z,45.87
2018-09-18T15:50:49.747Z,49.78
2018-09-18T15:53:21.528Z,49.76
2018-09-18T15:55:52.256Z,51.26
2018-09-18T16:04:18.036Z,50.65
2018-09-18T16:06:57.514Z,49.41
2018-09-18T16:33:35.668Z,71.29
2018-09-18T16:36:09.868Z,72.57
2018-09-18T16:38:40.684Z,74.10
2018-09-18T16:41:15.498Z,72.39
2018-09-18T16:43:45.537Z,73.80
2018-09-18T16:46:15.463Z,73.34
2018-09-18T16:48:45.407Z,74.93
2018-09-18T16:51:15.341Z,75.30
2018-09-18T16:53:45.492Z,75.82
2018-09-18T16:56:19.969Z,75.45
2018-09-18T16:58:51.163Z,76.64
2018-09-18T17:01:21.120Z,76.98
2018-09-18T17:03:52.215Z,77.17
2018-09-18T17:06:23.563Z,78.48
2018-09-18T17:08:59.113Z,79.16
2018-09-18T17:11:33.714Z,79.86
2018-09-18T17:14:04.981Z,80.48
2018-09-18T17:16:36.007Z,81.79
2018-09-18T17:19:07.755Z,81.77
2018-09-18T17:21:38.694Z,81.43
2018-09-18T17:24:08.614Z,81.16
2018-09-18T17:26:40.329Z,81.93
2018-09-18T17:32:36.036Z,82.64
2018-09-18T17:38:14.530Z,82.94
2018-09-18T17:41:03.217Z,84.28
2018-09-18T17:46:44.002Z,84.67
2018-09-18T17:49:15.304Z,85.22
2018-09-18T17:54:37.470Z,85.86
2018-09-18T17:57:20.157Z,85.65
2018-09-18T17:59:50.314Z,86.35
2018-09-18T18:02:21.112Z,86.34
2018-09-18T18:04:52.029Z,86.50
2018-09-18T18:07:21.853Z,86.71
2018-09-18T18:09:52.253Z,86.65
2018-09-18T18:12:27.781Z,87.21
2018-09-18T18:14:58.003Z,86.62
2018-09-18T18:17:30.229Z,86.78
2018-09-18T18:20:02.061Z,87.00
2018-09-18T18:22:40.171Z,87.59
2018-09-18T18:25:15.351Z,87.79
2018-09-18T18:27:47.614Z,88.57
2018-09-18T18:30:19.696Z,87.61
2018-09-18T18:32:51.511Z,87.12
2018-09-18T18:35:21.597Z,87.09
2018-09-18T18:37:53.653Z,87.37
2018-09-18T18:40:26.193Z,88.05
2018-09-18T18:42:56.333Z,87.74
2018-09-18T18:45:30.632Z,87.69
2018-09-18T18:51:32.954Z,87.95
2018-09-18T18:54:04.675Z,87.79
2018-09-18T18:56:45.784Z,87.05
2018-09-18T19:05:27.639Z,88.72
2018-09-18T19:07:58.283Z,89.28
2018-09-18T19:10:29.081Z,90.09
2018-09-18T19:13:06.498Z,90.35
2018-09-18T19:15:40.073Z,89.58
2018-09-18T19:18:17.302Z,90.05
2018-09-18T19:20:50.134Z,89.92
2018-09-18T19:23:21.086Z,89.61
2018-09-18T19:29:21.267Z,89.13
2018-09-18T19:31:51.869Z,90.67
2018-09-18T19:34:21.933Z,89.50
2018-09-18T19:36:53.364Z,89.98
2018-09-18T19:39:28.777Z,91.10
2018-09-18T19:41:59.433Z,89.31
2018-09-18T19:44:35.215Z,89.12
2018-09-18T19:47:06.158Z,89.62
2018-09-18T19:49:43.928Z,90.49
2018-09-18T19:52:15.650Z,90.90
2018-09-18T19:54:46.386Z,90.29
2018-09-18T19:57:18.091Z,91.59
2018-09-18T19:59:56.777Z,91.67
2018-09-18T20:02:27.569Z,90.95
2018-09-18T20:04:58.458Z,91.45
2018-09-18T20:07:30.860Z,91.77
2018-09-18T20:22:17.456Z,91.37
2018-09-18T21:20:02.912Z,92.54
2018-09-18T21:31:58.991Z,92.27
2018-09-18T21:34:32.497Z,91.05
2018-09-18T21:37:02.673Z,90.31
2018-09-18T21:39:33.850Z,90.78
2018-09-18T21:42:13.031Z,92.15
2018-09-18T21:44:48.363Z,92.43
2018-09-18T21:47:18.898Z,92.07
2018-09-18T21:49:50.931Z,92.51
2018-09-18T21:52:21.986Z,91.81
2018-09-18T21:54:53.784Z,91.59
2018-09-18T22:00:43.433Z,92.30
2018-09-18T22:03:13.515Z,92.00
2018-09-18T22:05:44.683Z,92.20
2018-09-18T22:18:40.533Z,92.39
2018-09-18T22:21:10.900Z,91.95
2018-09-18T22:23:40.983Z,91.92
2018-09-18T22:26:11.218Z,91.65
2018-09-18T22:28:41.152Z,91.50
2018-09-18T22:31:11.068Z,92.81
2018-09-18T22:33:41.365Z,93.42
2018-09-18T22:36:11.534Z,93.26
2018-09-18T22:38:41.401Z,92.92
2018-09-18T22:41:11.253Z,93.10
2018-09-18T22:43:42.575Z,93.07
2018-09-18T22:46:12.792Z,92.46
2018-09-18T22:48:43.418Z,92.01
2018-09-18T22:51:17.953Z,93.31
2018-09-18T22:53:48.026Z,94.06
2018-09-18T22:56:17.835Z,93.48
2018-09-18T22:58:47.844Z,92.60
2018-09-18T23:01:17.723Z,94.00
2018-09-18T23:03:47.509Z,93.22
2018-09-18T23:06:18.447Z,92.57
2018-09-18T23:08:48.688Z,92.99
2018-09-18T23:11:19.478Z,92.69
2018-09-18T23:13:49.634Z,92.88
2018-09-18T23:16:19.768Z,92.47
2018-09-18T23:19:10.968Z,92.94
2018-09-18T23:21:45.166Z,93.54
